Time;durP1;ratioP1;P1;durP2;ratioP2;P2;SDS_P1;SDS_P2;PMS_P1;PMS_P2;Temp;Humidity;BMP_temperature;BMP_pressure;BME280_temperature;BME280_humidity;BME280_pressure;Samples;Min_cycle;Max_cycle;Signal;HPM_P1;HPM_P2
2021/12/26 00:00:20;;;;;;;;;;;11.70;99.90;;;;;;6276051;22;19930;-90
2021/12/26 00:02:45;;;;;;;;;;;11.70;99.90;;;;;;6303208;22;19902;-90
2021/12/26 00:05:11;;;;;;;;;;;11.70;99.90;;;;;;6303042;22;19921;-90
2021/12/26 00:07:37;;;;;;;;;;;11.70;99.90;;;;;;6303483;22;19905;-90
2021/12/26 00:10:07;;;;;;;;;;;11.70;99.90;;;;;;6303270;22;19907;-90
2021/12/26 00:12:33;;;;;;;;;;;11.70;99.90;;;;;;6275963;22;19951;-90
2021/12/26 00:14:59;;;;;;;;;;;11.70;99.90;;;;;;6304039;22;20332;-90
2021/12/26 00:17:25;;;;;;;;;;;11.70;99.90;;;;;;6304713;22;20322;-91
2021/12/26 00:19:51;;;;;;;;;;;11.70;99.90;;;;;;6275520;22;19992;-90
2021/12/26 00:22:16;;;;;;;;;;;11.70;99.90;;;;;;6302791;22;20273;-90
2021/12/26 00:24:42;;;;;;;;;;;11.70;99.90;;;;;;6275749;22;19899;-90
2021/12/26 00:27:07;;;;;;;;;;;11.70;99.90;;;;;;6303025;22;19953;-91
2021/12/26 00:29:33;;;;;;;;;;;11.70;99.90;;;;;;6303304;22;19914;-89
2021/12/26 00:31:59;;;;;;;;;;;11.70;99.90;;;;;;6304205;22;19926;-90
2021/12/26 00:34:25;;;;;;;;;;;11.70;99.90;;;;;;6303039;22;19899;-90
2021/12/26 00:36:50;;;;;;;;;;;11.70;99.90;;;;;;6275456;22;20114;-90
2021/12/26 00:39:16;;;;;;;;;;;11.80;99.90;;;;;;6304418;22;20327;-90
2021/12/26 00:41:42;;;;;;;;;;;11.80;99.90;;;;;;6304977;22;19930;-91
2021/12/26 00:44:08;;;;;;;;;;;11.80;99.90;;;;;;6305288;22;19903;-90
2021/12/26 00:46:34;;;;;;;;;;;11.70;99.90;;;;;;6277517;22;19938;-89
2021/12/26 00:49:02;;;;;;;;;;;11.70;99.90;;;;;;6278355;22;19907;-90
2021/12/26 00:51:28;;;;;;;;;;;11.80;99.90;;;;;;6305420;22;19914;-90
2021/12/26 00:53:53;;;;;;;;;;;11.80;99.90;;;;;;6277493;22;19898;-91
2021/12/26 00:56:19;;;;;;;;;;;11.70;99.90;;;;;;6277456;22;19899;-91
2021/12/26 00:58:45;;;;;;;;;;;11.70;99.90;;;;;;6277350;22;19906;-90
2021/12/26 01:01:11;;;;;;;;;;;11.70;99.90;;;;;;6304619;22;20310;-90
2021/12/26 01:03:37;;;;;;;;;;;11.70;99.90;;;;;;6277902;22;19899;-90
2021/12/26 01:06:03;;;;;;;;;;;11.70;99.90;;;;;;6305017;22;19910;-90
2021/12/26 01:08:31;;;;;;;;;;;12.00;99.90;;;;;;6305426;22;19911;-90
2021/12/26 01:10:59;;;;;;;;;;;11.70;99.90;;;;;;6277632;22;20238;-91
2021/12/26 01:13:32;;;;;;;;;;;11.70;99.90;;;;;;6304560;22;19910;-90
2021/12/26 01:16:00;;;;;;;;;;;11.70;99.90;;;;;;6305348;22;19898;-90
2021/12/26 01:18:28;;;;;;;;;;;11.70;99.90;;;;;;6276992;22;19906;-91
2021/12/26 01:21:02;;;;;;;;;;;11.80;99.90;;;;;;6277195;22;20450;-90
2021/12/26 01:23:29;;;;;;;;;;;11.80;99.90;;;;;;6277608;22;19930;-89
2021/12/26 01:25:55;;;;;;;;;;;11.80;99.90;;;;;;6277173;22;20342;-90
2021/12/26 01:28:23;;;;;;;;;;;11.80;99.90;;;;;;6304298;22;19921;-91
2021/12/26 01:30:49;;;;;;;;;;;11.70;99.90;;;;;;6304363;22;19905;-91
2021/12/26 01:33:18;;;;;;;;;;;11.70;99.90;;;;;;6304671;22;19907;-89
2021/12/26 01:35:44;;;;;;;;;;;11.70;99.90;;;;;;6277403;22;19904;-90
2021/12/26 01:38:13;;;;;;;;;;;11.80;99.90;;;;;;6304447;22;19974;-89
2021/12/26 01:40:41;;;;;;;;;;;11.80;99.90;;;;;;6277226;22;20273;-89
2021/12/26 01:43:07;;;;;;;;;;;11.80;99.90;;;;;;6276935;22;19942;-92
2021/12/26 01:45:32;;;;;;;;;;;11.80;99.90;;;;;;6305093;22;20346;-89
2021/12/26 01:47:59;;;;;;;;;;;11.80;99.90;;;;;;6277042;22;19898;-90
2021/12/26 01:50:24;;;;;;;;;;;11.80;99.90;;;;;;6304079;22;19907;-91
2021/12/26 01:52:50;;;;;;;;;;;11.80;99.90;;;;;;6276669;22;19921;-89
2021/12/26 01:55:38;;;;;;;;;;;11.80;99.90;;;;;;6277160;22;19921;-90
2021/12/26 01:58:08;;;;;;;;;;;11.80;99.90;;;;;;6305041;22;19978;-90
2021/12/26 02:00:33;;;;;;;;;;;11.80;99.90;;;;;;6278389;22;19899;-91
2021/12/26 02:03:00;;;;;;;;;;;11.80;99.90;;;;;;6309072;22;20318;-90
2021/12/26 02:05:29;;;;;;;;;;;11.80;99.90;;;;;;6314890;22;20431;-91
2021/12/26 02:07:54;;;;;;;;;;;11.80;99.90;;;;;;6319489;22;19899;-89
2021/12/26 02:10:23;;;;;;;;;;;11.80;99.90;;;;;;6282204;22;19906;-90
2021/12/26 02:12:51;;;;;;;;;;;11.80;99.90;;;;;;6277976;22;20235;-91
2021/12/26 02:15:19;;;;;;;;;;;11.80;99.90;;;;;;6304177;22;19943;-92
2021/12/26 02:17:45;;;;;;;;;;;11.80;99.90;;;;;;6304069;22;20467;-90
2021/12/26 02:20:29;;;;;;;;;;;11.80;99.90;;;;;;6304219;22;19977;-90
2021/12/26 02:23:01;;;;;;;;;;;11.80;99.90;;;;;;6303939;22;19909;-90
2021/12/26 02:25:33;;;;;;;;;;;11.90;99.90;;;;;;6304229;22;20148;-90
2021/12/26 02:28:00;;;;;;;;;;;11.90;99.90;;;;;;6276543;22;19898;-90
2021/12/26 02:30:25;;;;;;;;;;;11.90;99.90;;;;;;6276542;22;19911;-91
2021/12/26 02:32:51;;;;;;;;;;;11.90;99.90;;;;;;6276540;22;19906;-91
2021/12/26 02:35:19;;;;;;;;;;;11.90;99.90;;;;;;6303671;22;19898;-90
2021/12/26 02:37:45;;;;;;;;;;;11.90;99.90;;;;;;6276207;22;19898;-90
2021/12/26 02:40:11;;;;;;;;;;;11.90;99.90;;;;;;6303957;22;19905;-89
2021/12/26 02:42:36;;;;;;;;;;;11.90;99.90;;;;;;6277457;22;19899;-89
2021/12/26 02:45:03;;;;;;;;;;;11.90;99.90;;;;;;6304102;22;19903;-89
2021/12/26 02:47:29;;;;;;;;;;;11.90;99.90;;;;;;6303714;22;20325;-90
2021/12/26 02:50:02;;;;;;;;;;;11.90;99.90;;;;;;6301861;22;19911;-90
2021/12/26 02:52:28;;;;;;;;;;;11.90;99.90;;;;;;6295149;22;20121;-90
2021/12/26 02:54:54;;;;;;;;;;;11.90;99.90;;;;;;6328189;22;19969;-89
2021/12/26 02:57:19;;;;;;;;;;;11.90;99.90;;;;;;6303674;22;19913;-89
2021/12/26 02:59:45;;;;;;;;;;;11.90;99.90;;;;;;6302009;22;19931;-89
2021/12/26 03:02:10;;;;;;;;;;;11.80;99.90;;;;;;6301740;22;19903;-90
2021/12/26 03:04:37;;;;;;;;;;;11.90;99.90;;;;;;6304677;22;19986;-91
2021/12/26 03:07:02;;;;;;;;;;;11.80;99.90;;;;;;6303609;22;19909;-89
2021/12/26 03:09:31;;;;;;;;;;;11.90;99.90;;;;;;6327946;22;19982;-90
2021/12/26 03:11:57;;;;;;;;;;;11.80;99.90;;;;;;6303445;22;19967;-91
2021/12/26 03:14:22;;;;;;;;;;;11.90;99.90;;;;;;6327945;22;20327;-90
2021/12/26 03:16:48;;;;;;;;;;;11.90;99.90;;;;;;6301737;22;20336;-89
2021/12/26 03:19:14;;;;;;;;;;;11.90;99.90;;;;;;6303242;22;19952;-91
2021/12/26 03:21:40;;;;;;;;;;;11.90;99.90;;;;;;6302309;22;19945;-90
2021/12/26 03:24:05;;;;;;;;;;;11.90;99.90;;;;;;6304268;22;19903;-90
2021/12/26 03:26:31;;;;;;;;;;;11.90;99.90;;;;;;6303299;22;19903;-90
2021/12/26 03:28:56;;;;;;;;;;;11.90;99.90;;;;;;6301713;22;19907;-89
2021/12/26 03:31:22;;;;;;;;;;;11.90;99.90;;;;;;6301541;22;19977;-91
2021/12/26 03:33:48;;;;;;;;;;;11.90;99.90;;;;;;6303067;22;19906;-90
2021/12/26 03:36:15;;;;;;;;;;;11.90;99.90;;;;;;6327984;22;20281;-90
2021/12/26 03:38:41;;;;;;;;;;;11.90;99.90;;;;;;6303631;22;19933;-90
2021/12/26 03:41:07;;;;;;;;;;;11.90;99.90;;;;;;6304295;22;19906;-89
2021/12/26 03:43:32;;;;;;;;;;;11.90;99.90;;;;;;6327796;22;19898;-90
2021/12/26 03:45:58;;;;;;;;;;;11.80;99.90;;;;;;6303288;22;19906;-92
2021/12/26 03:48:25;;;;;;;;;;;11.80;99.90;;;;;;6303276;22;19993;-90
2021/12/26 03:50:51;;;;;;;;;;;11.80;99.90;;;;;;6303692;22;20013;-90
2021/12/26 03:53:16;;;;;;;;;;;11.80;99.90;;;;;;6275973;22;20330;-90
2021/12/26 03:55:43;;;;;;;;;;;11.80;99.90;;;;;;6303428;22;19902;-90
2021/12/26 03:58:13;;;;;;;;;;;11.90;99.90;;;;;;6304102;22;19898;-90
2021/12/26 04:00:41;;;;;;;;;;;11.80;99.90;;;;;;6304086;22;20319;-89
2021/12/26 04:03:06;;;;;;;;;;;11.80;99.90;;;;;;6303609;22;19927;-90
2021/12/26 04:05:32;;;;;;;;;;;11.80;99.90;;;;;;6275949;22;19903;-90
2021/12/26 04:07:58;;;;;;;;;;;11.80;99.90;;;;;;6275890;22;19903;-92
2021/12/26 04:10:24;;;;;;;;;;;11.80;99.90;;;;;;6303009;22;20319;-91
2021/12/26 04:12:52;;;;;;;;;;;11.90;99.90;;;;;;6303630;22;19899;-90
2021/12/26 04:15:20;;;;;;;;;;;11.80;99.90;;;;;;6277868;22;19922;-91
2021/12/26 04:17:45;;;;;;;;;;;11.90;99.90;;;;;;6304929;22;19910;-91
2021/12/26 04:20:11;;;;;;;;;;;11.90;99.90;;;;;;6278862;22;19899;-92
2021/12/26 04:22:37;;;;;;;;;;;11.90;99.90;;;;;;6305194;22;19934;-89
2021/12/26 04:25:03;;;;;;;;;;;11.80;99.90;;;;;;6277898;22;20421;-90
2021/12/26 04:27:31;;;;;;;;;;;11.80;99.90;;;;;;6305254;22;19899;-90
2021/12/26 04:29:57;;;;;;;;;;;11.80;99.90;;;;;;6277537;22;19907;-91
2021/12/26 04:32:22;;;;;;;;;;;11.80;99.90;;;;;;6277683;22;19981;-91
2021/12/26 04:34:48;;;;;;;;;;;11.80;99.90;;;;;;6278677;22;19906;-89
2021/12/26 04:37:13;;;;;;;;;;;11.80;99.90;;;;;;6313513;22;20262;-89
2021/12/26 04:39:39;;;;;;;;;;;11.80;99.90;;;;;;6291732;22;19899;-90
2021/12/26 04:42:05;;;;;;;;;;;11.70;99.90;;;;;;6322020;22;19899;-89
2021/12/26 04:44:31;;;;;;;;;;;11.70;99.90;;;;;;6283090;22;19898;-90
2021/12/26 04:46:56;;;;;;;;;;;11.80;99.90;;;;;;6305926;22;19906;-91
2021/12/26 04:49:22;;;;;;;;;;;11.70;99.90;;;;;;6307943;22;20257;-90
2021/12/26 04:51:48;;;;;;;;;;;11.70;99.90;;;;;;6278039;22;19907;-90
2021/12/26 04:54:14;;;;;;;;;;;11.70;99.90;;;;;;6305758;22;19952;-89
2021/12/26 04:56:42;;;;;;;;;;;11.60;99.90;;;;;;6305903;22;19899;-90
2021/12/26 04:59:07;;;;;;;;;;;11.60;99.90;;;;;;6304789;22;20388;-91
2021/12/26 05:01:36;;;;;;;;;;;11.60;99.90;;;;;;6304978;22;19902;-90
2021/12/26 05:04:03;;;;;;;;;;;11.50;99.90;;;;;;6304806;22;19926;-88
2021/12/26 05:06:30;;;;;;;;;;;11.40;99.90;;;;;;6272110;22;20286;-90
2021/12/26 05:08:55;;;;;;;;;;;11.40;99.90;;;;;;6273531;22;19911;-91
2021/12/26 05:11:21;;;;;;;;;;;11.40;99.90;;;;;;6273625;22;19906;-89
2021/12/26 05:13:46;;;;;;;;;;;11.40;99.90;;;;;;6246413;22;19899;-89
2021/12/26 05:16:12;;;;;;;;;;;11.40;99.90;;;;;;6274937;22;19934;-90
2021/12/26 05:18:38;;;;;;;;;;;11.40;99.90;;;;;;6246923;22;19932;-91
2021/12/26 05:21:04;;;;;;;;;;;11.40;99.90;;;;;;6273593;22;19914;-91
2021/12/26 05:23:29;;;;;;;;;;;11.40;99.90;;;;;;6273518;22;19899;-90
2021/12/26 05:25:55;;;;;;;;;;;11.40;99.90;;;;;;6272743;22;19903;-90
2021/12/26 05:28:20;;;;;;;;;;;11.50;99.90;;;;;;6246164;22;19906;-90
2021/12/26 05:30:46;;;;;;;;;;;11.40;99.90;;;;;;6274439;22;19910;-90
2021/12/26 05:33:12;;;;;;;;;;;11.50;99.90;;;;;;6247371;22;19985;-90
2021/12/26 05:35:37;;;;;;;;;;;11.40;99.90;;;;;;6273437;22;19900;-88
2021/12/26 05:38:03;;;;;;;;;;;11.40;99.90;;;;;;6273424;22;20287;-90
2021/12/26 05:40:28;;;;;;;;;;;11.40;99.90;;;;;;6246417;22;19903;-91
2021/12/26 05:42:54;;;;;;;;;;;11.40;99.90;;;;;;6246253;22;19899;-91
2021/12/26 05:45:20;;;;;;;;;;;11.40;99.90;;;;;;6273508;22;19903;-92
2021/12/26 05:47:45;;;;;;;;;;;11.40;99.90;;;;;;6274667;22;19903;-91
2021/12/26 05:50:16;;;;;;;;;;;11.50;99.90;;;;;;6246588;22;19985;-92
2021/12/26 05:52:41;;;;;;;;;;;11.50;99.90;;;;;;6267824;22;19914;-90
2021/12/26 05:55:07;;;;;;;;;;;11.50;99.90;;;;;;6273693;22;20144;-91
2021/12/26 05:57:33;;;;;;;;;;;11.50;99.90;;;;;;6271742;22;19906;-91
2021/12/26 05:59:59;;;;;;;;;;;11.40;99.90;;;;;;6273706;22;19899;-92
2021/12/26 06:02:25;;;;;;;;;;;11.40;99.90;;;;;;6273552;22;19899;-92
2021/12/26 06:04:50;;;;;;;;;;;11.40;99.90;;;;;;6273497;22;19899;-90
2021/12/26 06:07:16;;;;;;;;;;;11.40;99.90;;;;;;6274326;22;19907;-92
2021/12/26 06:09:41;;;;;;;;;;;11.40;99.90;;;;;;6273333;22;19907;-90
2021/12/26 06:12:07;;;;;;;;;;;11.40;99.90;;;;;;6271579;22;19937;-90
2021/12/26 06:14:33;;;;;;;;;;;11.50;99.90;;;;;;6273370;22;19899;-91
2021/12/26 06:16:59;;;;;;;;;;;11.50;99.90;;;;;;6271873;22;19906;-91
2021/12/26 06:19:24;;;;;;;;;;;11.40;99.90;;;;;;6297639;22;19906;-90
2021/12/26 06:21:50;;;;;;;;;;;11.40;99.90;;;;;;6273194;22;19987;-89
2021/12/26 06:24:15;;;;;;;;;;;11.40;99.90;;;;;;6274162;22;19903;-91
2021/12/26 06:26:41;;;;;;;;;;;11.40;99.90;;;;;;6271427;22;19929;-90
2021/12/26 06:29:07;;;;;;;;;;;11.40;99.90;;;;;;6271911;22;19903;-91
2021/12/26 06:31:33;;;;;;;;;;;11.30;99.90;;;;;;6273036;22;20346;-90
2021/12/26 06:33:59;;;;;;;;;;;11.30;99.90;;;;;;6271739;22;20029;-89
2021/12/26 06:36:24;;;;;;;;;;;11.20;99.90;;;;;;6272356;22;19899;-91
2021/12/26 06:38:51;;;;;;;;;;;11.20;99.90;;;;;;6273622;22;19973;-91
2021/12/26 06:44:08;;;;;;;;;;;11.20;99.90;;;;;;6257273;22;19974;-93
2021/12/26 06:53:17;;;;;;;;;;;11.10;99.90;;;;;;6226530;22;19914;-92
2021/12/26 06:56:02;;;;;;;;;;;11.10;99.90;;;;;;6234752;23;19899;-91
2021/12/26 06:59:00;;;;;;;;;;;;;;;;;;;;;
2021/12/26 07:24:34;;;;;;;;;;;;;;;;;;;;;
2021/12/26 08:01:02;;;;;;;;;;;;;;;;;;;;;
2021/12/26 09:41:28;;;;;;;;;;;11.60;99.90;;;;;;5897867;24;20325;-90
2021/12/26 09:43:54;;;;;;;;;;;11.60;99.90;;;;;;6027717;23;20441;-91
2021/12/26 09:53:17;;;;;;;;;;;11.60;99.90;;;;;;5961842;24;19907;-94
2021/12/26 09:58:34;;;;;;;;;;;11.70;99.90;;;;;;5944834;23;20399;-90
2021/12/26 10:01:01;;;;;;;;;;;11.70;99.90;;;;;;6205681;23;19903;-89
2021/12/26 10:03:33;;;;;;;;;;;11.70;99.90;;;;;;6225427;23;19910;-91
2021/12/26 10:06:02;;;;;;;;;;;11.70;99.90;;;;;;6256151;23;19904;-89
2021/12/26 10:08:37;;;;;;;;;;;11.80;99.90;;;;;;6267461;23;19933;-91
2021/12/26 10:11:31;;;;;;;;;;;11.80;99.90;;;;;;6256435;23;19899;-89
2021/12/26 10:14:26;;;;;;;;;;;11.80;99.90;;;;;;6268056;23;20336;-90
2021/12/26 10:17:04;;;;;;;;;;;11.80;99.90;;;;;;6252324;22;19939;-90
2021/12/26 10:19:43;;;;;;;;;;;11.80;99.90;;;;;;6273690;23;19895;-90
2021/12/26 10:22:39;;;;;;;;;;;11.80;99.90;;;;;;6253078;23;19977;-89
2021/12/26 10:25:50;;;;;;;;;;;11.80;99.90;;;;;;6275500;22;19903;-90
2021/12/26 10:28:15;;;;;;;;;;;11.90;99.90;;;;;;6335759;22;19914;-91
2021/12/26 10:30:42;;;;;;;;;;;11.90;99.90;;;;;;6309236;22;19919;-90
2021/12/26 10:33:08;;;;;;;;;;;12.00;99.90;;;;;;6309001;22;19927;-91
2021/12/26 10:35:49;;;;;;;;;;;12.00;99.90;;;;;;6309526;22;19907;-90
2021/12/26 10:38:28;;;;;;;;;;;12.00;99.90;;;;;;6308039;22;19930;-91
2021/12/26 10:41:14;;;;;;;;;;;12.10;99.90;;;;;;6334883;22;19894;-90
2021/12/26 10:43:46;;;;;;;;;;;12.00;99.90;;;;;;6325649;22;19943;-91
2021/12/26 10:46:16;;;;;;;;;;;12.10;99.90;;;;;;6300928;22;19903;-93
2021/12/26 10:48:41;;;;;;;;;;;12.00;99.90;;;;;;6299446;22;19910;-91
2021/12/26 10:51:07;;;;;;;;;;;12.00;99.90;;;;;;6300737;22;19950;-92
2021/12/26 10:53:32;;;;;;;;;;;12.00;99.90;;;;;;6296837;22;19948;-89
2021/12/26 10:56:07;;;;;;;;;;;12.00;99.90;;;;;;6297249;22;19918;-91
2021/12/26 10:58:35;;;;;;;;;;;12.00;99.90;;;;;;6298706;22;19922;-91
2021/12/26 11:01:01;;;;;;;;;;;12.00;99.90;;;;;;6294397;22;20332;-94
2021/12/26 11:03:29;;;;;;;;;;;12.10;99.90;;;;;;6279807;22;19924;-94
2021/12/26 11:05:56;;;;;;;;;;;12.00;99.90;;;;;;6278933;22;19903;-94
2021/12/26 11:08:29;;;;;;;;;;;12.10;99.90;;;;;;6279271;22;20269;-94
2021/12/26 11:10:55;;;;;;;;;;;12.20;99.90;;;;;;6280366;22;19918;-93
2021/12/26 11:13:20;;;;;;;;;;;12.20;99.90;;;;;;6283303;22;19973;-91
2021/12/26 11:15:46;;;;;;;;;;;12.20;99.90;;;;;;6278711;22;20292;-91
2021/12/26 11:18:14;;;;;;;;;;;12.30;99.90;;;;;;6278416;22;19903;-92
2021/12/26 11:20:48;;;;;;;;;;;12.30;99.90;;;;;;6278894;22;19921;-92
2021/12/26 11:23:24;;;;;;;;;;;12.40;99.90;;;;;;6305588;22;19956;-93
2021/12/26 11:25:55;;;;;;;;;;;12.40;99.90;;;;;;6305034;22;19911;-93
2021/12/26 11:28:26;;;;;;;;;;;12.50;99.90;;;;;;6277976;22;19934;-92
2021/12/26 11:30:55;;;;;;;;;;;12.60;99.90;;;;;;6278081;22;19903;-93
2021/12/26 11:33:21;;;;;;;;;;;12.60;99.90;;;;;;6305871;22;19903;-90
2021/12/26 11:35:47;;;;;;;;;;;12.70;99.90;;;;;;6306714;22;19917;-92
2021/12/26 11:38:18;;;;;;;;;;;12.80;99.90;;;;;;6280541;22;19977;-92
2021/12/26 11:40:44;;;;;;;;;;;12.90;99.90;;;;;;6281266;22;19903;-90
2021/12/26 11:43:20;;;;;;;;;;;13.00;99.90;;;;;;6281027;22;19903;-91
2021/12/26 11:45:52;;;;;;;;;;;13.00;99.90;;;;;;6285541;22;20429;-92
2021/12/26 11:48:41;;;;;;;;;;;13.00;99.90;;;;;;6285828;22;19943;-90
2021/12/26 11:51:19;;;;;;;;;;;13.10;99.90;;;;;;6286042;22;19910;-90
2021/12/26 11:53:58;;;;;;;;;;;13.10;99.90;;;;;;6287651;22;20239;-90
2021/12/26 11:56:30;;;;;;;;;;;13.20;99.90;;;;;;6284494;22;19911;-91
2021/12/26 11:58:59;;;;;;;;;;;13.10;99.90;;;;;;6314540;22;19911;-89
2021/12/26 12:01:30;;;;;;;;;;;13.20;99.90;;;;;;6316720;22;19903;-89
2021/12/26 12:04:17;;;;;;;;;;;13.10;99.90;;;;;;6290815;22;19931;-89
2021/12/26 12:06:54;;;;;;;;;;;13.10;99.90;;;;;;6288072;22;19910;-90
2021/12/26 12:09:50;;;;;;;;;;;13.00;99.90;;;;;;6314760;22;19903;-90
2021/12/26 12:12:18;;;;;;;;;;;13.10;99.90;;;;;;6293276;22;19903;-90
2021/12/26 12:14:54;;;;;;;;;;;13.10;99.90;;;;;;6290834;22;19907;-90
2021/12/26 12:17:50;;;;;;;;;;;13.10;99.90;;;;;;6332950;22;19933;-91
2021/12/26 12:20:21;;;;;;;;;;;13.10;99.90;;;;;;6309346;22;19918;-91
2021/12/26 12:23:04;;;;;;;;;;;13.10;99.90;;;;;;6336722;22;19911;-90
2021/12/26 12:25:38;;;;;;;;;;;13.10;99.90;;;;;;6306221;22;19921;-91
2021/12/26 12:28:13;;;;;;;;;;;13.10;99.90;;;;;;6309542;22;19891;-91
2021/12/26 12:30:41;;;;;;;;;;;13.10;99.90;;;;;;6309906;22;19895;-91
2021/12/26 12:33:13;;;;;;;;;;;13.10;99.90;;;;;;6334876;22;19911;-90
2021/12/26 12:35:52;;;;;;;;;;;13.20;99.90;;;;;;6332019;22;19908;-90
2021/12/26 12:41:28;;;;;;;;;;;13.20;99.90;;;;;;6329237;22;19929;-90
2021/12/26 12:43:55;;;;;;;;;;;13.20;99.90;;;;;;6334143;22;19891;-93
2021/12/26 12:46:24;;;;;;;;;;;13.20;99.90;;;;;;6334709;22;19951;-92
2021/12/26 12:48:59;;;;;;;;;;;13.30;99.90;;;;;;6333556;22;19891;-93
2021/12/26 12:51:33;;;;;;;;;;;13.30;99.90;;;;;;6335696;22;19931;-90
2021/12/26 12:53:59;;;;;;;;;;;13.40;99.90;;;;;;6306888;22;19911;-93
2021/12/26 12:56:35;;;;;;;;;;;13.50;99.90;;;;;;6332194;22;19899;-94
2021/12/26 12:59:20;;;;;;;;;;;13.70;99.90;;;;;;6298390;22;19903;-95
2021/12/26 13:01:48;;;;;;;;;;;13.70;99.90;;;;;;6326685;22;19918;-94
2021/12/26 13:04:14;;;;;;;;;;;13.70;99.90;;;;;;6296760;22;19947;-88
2021/12/26 13:06:53;;;;;;;;;;;13.60;99.90;;;;;;6279296;22;19985;-91
2021/12/26 13:09:19;;;;;;;;;;;13.70;99.90;;;;;;6282144;22;19903;-93
2021/12/26 13:11:45;;;;;;;;;;;13.70;99.90;;;;;;6307858;22;19978;-93
2021/12/26 13:14:11;;;;;;;;;;;13.80;99.90;;;;;;6283519;22;20338;-88
2021/12/26 13:16:37;;;;;;;;;;;13.70;99.90;;;;;;6290745;22;19910;-92
2021/12/26 13:19:06;;;;;;;;;;;13.60;99.90;;;;;;6283143;22;20346;-89
2021/12/26 13:21:32;;;;;;;;;;;13.50;99.90;;;;;;6313670;22;19903;-94
2021/12/26 13:23:58;;;;;;;;;;;13.50;99.90;;;;;;6290609;22;19903;-93
2021/12/26 13:26:23;;;;;;;;;;;13.50;99.90;;;;;;6280847;22;19911;-93
2021/12/26 13:28:50;;;;;;;;;;;13.50;99.90;;;;;;6279125;22;20341;-94
2021/12/26 13:31:17;;;;;;;;;;;13.40;99.90;;;;;;6279210;22;19977;-93
2021/12/26 13:33:45;;;;;;;;;;;13.40;99.90;;;;;;6278802;22;19907;-93
2021/12/26 13:36:15;;;;;;;;;;;13.30;99.90;;;;;;6279524;22;20251;-90
2021/12/26 13:38:41;;;;;;;;;;;13.30;99.90;;;;;;6279500;22;19910;-90
2021/12/26 13:41:11;;;;;;;;;;;13.30;99.90;;;;;;6279768;22;20354;-92
2021/12/26 13:43:38;;;;;;;;;;;13.30;99.90;;;;;;6279289;22;19914;-93
2021/12/26 13:46:05;;;;;;;;;;;13.30;99.90;;;;;;6278513;22;19932;-91
2021/12/26 13:48:32;;;;;;;;;;;13.30;99.90;;;;;;6278501;22;19939;-93
2021/12/26 13:50:59;;;;;;;;;;;13.30;99.90;;;;;;6278611;22;19903;-92
2021/12/26 13:53:24;;;;;;;;;;;13.20;99.90;;;;;;6278351;22;19903;-94
2021/12/26 13:55:54;;;;;;;;;;;13.30;99.90;;;;;;6278336;22;19989;-93
2021/12/26 13:58:20;;;;;;;;;;;13.20;99.90;;;;;;6278093;22;19903;-93
2021/12/26 14:00:50;;;;;;;;;;;13.20;99.90;;;;;;6278403;22;19903;-91
2021/12/26 14:03:15;;;;;;;;;;;13.10;99.90;;;;;;6278372;22;19907;-93
2021/12/26 14:05:41;;;;;;;;;;;13.10;99.90;;;;;;6279749;22;19942;-92
2021/12/26 14:08:33;;;;;;;;;;;13.10;99.90;;;;;;6278856;22;20377;-91
2021/12/26 14:10:59;;;;;;;;;;;13.10;99.90;;;;;;6271000;22;19903;-95
2021/12/26 14:13:25;;;;;;;;;;;13.00;99.90;;;;;;6278173;22;19910;-93
2021/12/26 14:15:56;;;;;;;;;;;13.00;99.90;;;;;;6278259;22;20331;-93
2021/12/26 14:18:31;;;;;;;;;;;13.10;99.90;;;;;;6278417;22;19903;-93
2021/12/26 14:20:58;;;;;;;;;;;13.00;99.90;;;;;;6278928;22;20354;-92
2021/12/26 14:23:27;;;;;;;;;;;13.00;99.90;;;;;;6305945;22;19978;-92
2021/12/26 14:25:57;;;;;;;;;;;13.00;99.90;;;;;;6278338;22;19917;-93
2021/12/26 14:28:24;;;;;;;;;;;13.00;99.90;;;;;;6278364;22;19903;-93
2021/12/26 14:30:53;;;;;;;;;;;13.00;99.90;;;;;;6278998;22;19945;-94
2021/12/26 14:33:18;;;;;;;;;;;13.00;99.90;;;;;;6279220;22;19910;-94
2021/12/26 14:35:46;;;;;;;;;;;13.00;99.90;;;;;;6279317;22;19910;-90
2021/12/26 14:38:13;;;;;;;;;;;13.00;99.90;;;;;;6279381;22;19903;-94
2021/12/26 14:40:58;;;;;;;;;;;13.00;99.90;;;;;;6278762;22;19903;-94
2021/12/26 14:43:25;;;;;;;;;;;13.00;99.90;;;;;;6279683;22;19907;-93
2021/12/26 14:45:53;;;;;;;;;;;13.00;99.90;;;;;;6306154;22;19903;-93
2021/12/26 14:48:24;;;;;;;;;;;13.00;99.90;;;;;;6278513;22;19910;-94
2021/12/26 14:50:50;;;;;;;;;;;13.00;99.90;;;;;;6306215;22;19903;-95
2021/12/26 14:53:16;;;;;;;;;;;13.00;99.90;;;;;;6285332;22;19925;-92
2021/12/26 14:55:41;;;;;;;;;;;13.00;99.90;;;;;;6293657;22;19933;-95
2021/12/26 14:58:08;;;;;;;;;;;13.00;99.90;;;;;;6282093;22;19950;-95
2021/12/26 15:00:34;;;;;;;;;;;13.00;99.90;;;;;;6279257;22;19910;-95
2021/12/26 15:02:59;;;;;;;;;;;13.00;99.90;;;;;;6306817;22;19905;-92
2021/12/26 15:05:33;;;;;;;;;;;13.00;99.90;;;;;;6281186;22;19903;-95
2021/12/26 15:08:01;;;;;;;;;;;12.90;99.90;;;;;;6279080;22;19903;-93
2021/12/26 15:10:40;;;;;;;;;;;12.90;99.90;;;;;;6278615;22;19940;-92
2021/12/26 15:13:16;;;;;;;;;;;12.90;99.90;;;;;;6278290;22;19921;-94
2021/12/26 15:15:49;;;;;;;;;;;12.90;99.90;;;;;;6279237;22;19918;-95
2021/12/26 15:18:22;;;;;;;;;;;12.90;99.90;;;;;;6306982;22;19907;-93
2021/12/26 15:20:52;;;;;;;;;;;12.90;99.90;;;;;;6280161;22;20263;-93
2021/12/26 15:23:26;;;;;;;;;;;12.80;99.90;;;;;;6280554;22;19903;-93
2021/12/26 15:26:06;;;;;;;;;;;12.80;99.90;;;;;;6281514;22;19918;-94
2021/12/26 15:28:32;;;;;;;;;;;12.80;99.90;;;;;;6281645;22;19925;-95
2021/12/26 15:31:10;;;;;;;;;;;12.80;99.90;;;;;;6285361;22;20016;-95
2021/12/26 15:33:44;;;;;;;;;;;12.80;99.90;;;;;;6283805;22;19903;-93
2021/12/26 15:36:11;;;;;;;;;;;12.70;99.90;;;;;;6287511;22;19953;-93
2021/12/26 15:38:37;;;;;;;;;;;12.80;99.90;;;;;;6314554;22;20118;-93
2021/12/26 15:41:03;;;;;;;;;;;12.70;99.90;;;;;;6289044;22;19924;-94
2021/12/26 15:43:29;;;;;;;;;;;12.80;99.90;;;;;;6318495;22;19922;-94
2021/12/26 15:45:55;;;;;;;;;;;12.70;99.90;;;;;;6296546;22;19926;-93
2021/12/26 15:48:21;;;;;;;;;;;12.70;99.90;;;;;;6294147;22;19887;-91
2021/12/26 15:50:46;;;;;;;;;;;12.70;99.90;;;;;;6298398;22;19907;-90
2021/12/26 15:53:15;;;;;;;;;;;12.70;99.90;;;;;;6295894;22;19917;-91
2021/12/26 15:55:41;;;;;;;;;;;12.70;99.90;;;;;;6298643;22;19915;-94
2021/12/26 15:58:06;;;;;;;;;;;12.70;99.90;;;;;;6294873;22;19911;-93
2021/12/26 16:00:32;;;;;;;;;;;12.70;99.90;;;;;;6296014;22;19914;-91
2021/12/26 16:02:58;;;;;;;;;;;12.70;99.90;;;;;;6326064;22;19925;-92
2021/12/26 16:05:27;;;;;;;;;;;12.70;99.90;;;;;;6328280;22;19903;-93
2021/12/26 16:07:53;;;;;;;;;;;12.70;99.90;;;;;;6302166;22;19918;-92
2021/12/26 16:10:19;;;;;;;;;;;12.60;99.90;;;;;;6327901;22;19902;-91
2021/12/26 16:12:45;;;;;;;;;;;12.60;99.90;;;;;;6295628;22;19925;-93
2021/12/26 16:15:14;;;;;;;;;;;12.60;99.90;;;;;;6305377;22;19914;-94
2021/12/26 16:17:40;;;;;;;;;;;12.60;99.90;;;;;;6306641;22;20303;-94
2021/12/26 16:20:15;;;;;;;;;;;12.60;99.90;;;;;;6306936;22;19931;-92
2021/12/26 16:22:47;;;;;;;;;;;12.50;99.90;;;;;;6306645;22;19951;-94
2021/12/26 16:25:13;;;;;;;;;;;12.40;99.90;;;;;;6308034;22;19911;-94
2021/12/26 16:27:43;;;;;;;;;;;12.30;99.90;;;;;;6308022;22;19922;-91
2021/12/26 16:30:11;;;;;;;;;;;12.20;99.90;;;;;;6304080;22;19960;-90
2021/12/26 16:32:37;;;;;;;;;;;12.20;99.90;;;;;;6284463;22;19903;-90
2021/12/26 16:35:02;;;;;;;;;;;12.10;99.90;;;;;;6285155;22;19911;-89
2021/12/26 16:37:28;;;;;;;;;;;12.10;99.90;;;;;;6281199;22;20001;-91
2021/12/26 16:39:53;;;;;;;;;;;12.00;99.90;;;;;;6288739;22;19917;-91
2021/12/26 16:42:19;;;;;;;;;;;12.00;99.90;;;;;;6300770;22;19903;-92
2021/12/26 16:44:45;;;;;;;;;;;11.90;99.90;;;;;;6307920;22;19922;-92
2021/12/26 16:47:14;;;;;;;;;;;11.70;99.90;;;;;;6332909;22;19887;-90
2021/12/26 16:49:42;;;;;;;;;;;11.70;99.90;;;;;;6325701;22;19910;-92
2021/12/26 16:52:17;;;;;;;;;;;11.50;99.90;;;;;;6303779;22;19959;-90
2021/12/26 16:54:50;;;;;;;;;;;11.40;99.90;;;;;;6329568;22;19911;-91
2021/12/26 16:57:16;;;;;;;;;;;11.30;99.90;;;;;;6297036;22;19903;-90
2021/12/26 16:59:51;;;;;;;;;;;11.20;99.90;;;;;;6297295;22;19907;-92
2021/12/26 17:02:17;;;;;;;;;;;11.20;99.90;;;;;;6302934;22;19907;-92
2021/12/26 17:04:46;;;;;;;;;;;11.10;99.90;;;;;;6324910;22;19945;-92
2021/12/26 17:07:12;;;;;;;;;;;11.00;99.90;;;;;;6300132;22;19907;-91
2021/12/26 17:09:44;;;;;;;;;;;11.00;99.90;;;;;;6295924;22;19925;-89
2021/12/26 17:12:11;;;;;;;;;;;10.90;99.90;;;;;;6297280;22;19902;-89
2021/12/26 17:14:38;;;;;;;;;;;10.90;99.90;;;;;;6273072;22;19914;-88
2021/12/26 17:17:06;;;;;;;;;;;10.80;99.90;;;;;;6324750;22;19907;-90
2021/12/26 17:19:32;;;;;;;;;;;10.80;99.90;;;;;;6324646;22;19903;-90
2021/12/26 17:22:00;;;;;;;;;;;10.80;99.90;;;;;;6299776;22;19911;-90
2021/12/26 17:24:26;;;;;;;;;;;10.80;99.90;;;;;;6295627;22;19903;-89
2021/12/26 17:26:53;;;;;;;;;;;10.70;99.90;;;;;;6270868;22;19960;-90